createdAt,value
2023-05-09T00:02:08.103Z,3.30
2023-05-09T00:05:11.374Z,2.85
2023-05-09T00:08:15.299Z,3.10
2023-05-09T00:11:18.306Z,2.75
2023-05-09T00:14:24.773Z,3.08
2023-05-09T00:17:28.636Z,3.38
2023-05-09T00:20:33.871Z,2.58
2023-05-09T00:23:38.026Z,2.78
2023-05-09T00:26:40.969Z,3.03
2023-05-09T00:29:45.467Z,2.70
2023-05-09T00:32:48.799Z,3.17
2023-05-09T00:35:51.762Z,3.20
2023-05-09T00:38:54.772Z,2.85
2023-05-09T00:41:58.219Z,3.00
2023-05-09T00:45:02.940Z,2.87
2023-05-09T00:48:06.743Z,2.75
2023-05-09T00:51:10.081Z,3.03
2023-05-09T00:54:13.612Z,2.77
2023-05-09T00:57:16.621Z,2.63
2023-05-09T01:00:54.368Z,3.28
2023-05-09T01:03:57.637Z,3.35
2023-05-09T01:07:06.358Z,2.72
2023-05-09T01:10:15.918Z,2.80
2023-05-09T01:13:27.502Z,3.15
2023-05-09T01:16:39.668Z,2.88
2023-05-09T01:20:05.275Z,2.95
2023-05-09T01:23:37.413Z,3.33
2023-05-09T01:26:46.545Z,3.08
2023-05-09T01:29:56.213Z,3.20
2023-05-09T01:33:03.091Z,3.03
2023-05-09T01:36:10.613Z,2.92
2023-05-09T01:39:14.871Z,2.97
2023-05-09T01:45:24.679Z,2.50
2023-05-09T01:48:30.044Z,2.95
2023-05-09T01:51:35.911Z,3.10
2023-05-09T01:54:41.190Z,3.13
2023-05-09T01:57:45.710Z,3.35
2023-05-09T02:00:52.143Z,2.78
2023-05-09T02:03:55.700Z,3.10
2023-05-09T02:06:59.891Z,3.08
2023-05-09T02:13:06.855Z,2.53
2023-05-09T02:16:12.168Z,3.20
2023-05-09T02:19:15.557Z,3.03
2023-05-09T02:22:18.730Z,2.63
2023-05-09T02:25:21.827Z,3.38
2023-05-09T02:28:27.370Z,2.80
2023-05-09T02:31:32.665Z,3.35
2023-05-09T02:34:36.936Z,2.97
2023-05-09T02:40:44.363Z,3.13
2023-05-09T02:43:47.399Z,3.05
2023-05-09T02:46:51.965Z,2.70
2023-05-09T02:49:55.064Z,3.60
2023-05-09T02:52:58.143Z,3.35
2023-05-09T02:56:01.292Z,3.03
2023-05-09T02:59:04.425Z,3.83
2023-05-09T03:02:08.777Z,3.45
2023-05-09T03:05:11.843Z,2.95
2023-05-09T03:08:15.442Z,3.80
2023-05-09T03:11:18.546Z,4.00
2023-05-09T03:14:21.635Z,4.57
2023-05-09T03:17:26.223Z,4.05
2023-05-09T03:20:29.531Z,3.78
2023-05-09T03:23:32.677Z,3.70
2023-05-09T03:26:36.372Z,3.70
2023-05-09T03:29:39.476Z,3.65
2023-05-09T03:32:44.239Z,3.40
2023-05-09T03:35:47.328Z,3.40
2023-05-09T03:38:50.700Z,3.40
2023-05-09T03:41:53.788Z,3.87
2023-05-09T03:44:56.816Z,3.72
2023-05-09T03:48:01.198Z,3.83
2023-05-09T03:51:04.547Z,3.72
2023-05-09T03:54:07.749Z,3.47
2023-05-09T03:57:10.716Z,3.65
2023-05-09T04:00:14.498Z,4.00
2023-05-09T04:03:18.995Z,3.65
2023-05-09T04:06:22.223Z,4.22
2023-05-09T04:09:25.826Z,4.15
2023-05-09T04:12:28.964Z,3.33
2023-05-09T04:15:32.095Z,3.40
2023-05-09T04:18:36.540Z,3.53
2023-05-09T04:21:39.619Z,3.22
2023-05-09T04:24:42.695Z,4.05
2023-05-09T04:27:45.690Z,3.83
2023-05-09T04:30:49.040Z,3.85
2023-05-09T04:33:53.959Z,3.43
2023-05-09T04:36:57.206Z,3.63
2023-05-09T04:40:01.200Z,4.17
2023-05-09T04:43:04.399Z,3.83
2023-05-09T04:46:07.843Z,3.72
2023-05-09T04:49:12.448Z,3.42
2023-05-09T04:52:15.445Z,3.30
2023-05-09T04:55:18.608Z,3.22
2023-05-09T04:58:21.929Z,3.83
2023-05-09T05:01:25.183Z,3.77
2023-05-09T05:04:30.195Z,3.33
2023-05-09T05:07:33.208Z,3.30
2023-05-09T05:10:36.208Z,3.60
2023-05-09T05:13:39.735Z,3.60
2023-05-09T05:16:42.882Z,2.72
2023-05-09T05:19:47.465Z,3.33
2023-05-09T05:22:50.642Z,3.35
2023-05-09T05:25:54.075Z,3.20
2023-05-09T05:28:57.412Z,2.87
2023-05-09T05:32:00.565Z,3.50
2023-05-09T05:35:05.439Z,3.17
2023-05-09T05:38:08.584Z,3.63
2023-05-09T05:41:12.017Z,2.90
2023-05-09T05:44:15.055Z,2.97
2023-05-09T05:47:18.047Z,3.03
2023-05-09T05:50:22.922Z,3.20
2023-05-09T05:53:26.072Z,3.40
2023-05-09T05:56:29.132Z,2.53
2023-05-09T05:59:32.593Z,2.87
2023-05-09T06:02:35.956Z,2.60
2023-05-09T06:05:43.278Z,2.63
2023-05-09T06:08:47.789Z,3.13
2023-05-09T06:11:50.865Z,2.70
2023-05-09T06:14:53.969Z,2.85
2023-05-09T06:17:57.131Z,2.83
2023-05-09T06:21:01.663Z,2.77
2023-05-09T06:24:11.959Z,2.65
2023-05-09T06:27:20.235Z,2.83
2023-05-09T06:30:26.760Z,2.77
2023-05-09T06:33:30.120Z,2.85
2023-05-09T06:36:34.690Z,2.63
2023-05-09T06:39:37.672Z,2.42
2023-05-09T06:42:40.954Z,2.60
2023-05-09T06:45:44.780Z,3.20
2023-05-09T06:48:49.081Z,2.33
2023-05-09T06:51:54.073Z,2.92
2023-05-09T06:54:57.027Z,2.40
2023-05-09T06:58:00.190Z,2.83
2023-05-09T07:01:04.621Z,2.90
2023-05-09T07:04:07.803Z,2.95
2023-05-09T07:07:12.162Z,2.55
2023-05-09T07:10:15.303Z,2.83
2023-05-09T07:13:18.537Z,2.40
2023-05-09T07:16:23.040Z,2.75
2023-05-09T07:19:26.894Z,3.13
2023-05-09T07:22:32.181Z,2.60
2023-05-09T07:25:36.418Z,2.95
2023-05-09T07:28:39.732Z,2.80
2023-05-09T07:31:42.811Z,2.40
2023-05-09T07:34:45.966Z,2.33
2023-05-09T07:37:50.290Z,2.28
2023-05-09T07:40:53.974Z,2.45
2023-05-09T07:43:57.049Z,1.83
2023-05-09T07:47:01.168Z,2.38
2023-05-09T07:50:04.477Z,2.33
2023-05-09T07:53:08.884Z,2.43
2023-05-09T07:59:16.946Z,2.60
2023-05-09T08:02:20.088Z,2.20
2023-05-09T08:05:23.209Z,2.70
2023-05-09T08:08:28.384Z,2.20
2023-05-09T08:11:34.925Z,2.40
2023-05-09T08:14:38.156Z,2.28
2023-05-09T08:17:41.305Z,2.28
2023-05-09T08:20:44.415Z,2.30
2023-05-09T08:23:48.852Z,2.28
2023-05-09T08:26:51.836Z,2.60
2023-05-09T08:29:55.143Z,2.33
2023-05-09T08:32:58.454Z,2.25
2023-05-09T08:36:01.641Z,1.97
2023-05-09T08:39:06.144Z,2.38
2023-05-09T08:42:10.819Z,2.30
2023-05-09T08:45:15.892Z,2.40
2023-05-09T08:48:20.144Z,2.40
2023-05-09T08:54:28.882Z,2.40
2023-05-09T08:57:33.610Z,2.65
2023-05-09T09:03:13.732Z,2.47
2023-05-09T09:06:18.017Z,2.95
2023-05-09T09:09:22.038Z,2.80
2023-05-09T09:12:25.914Z,2.38
2023-05-09T09:15:31.762Z,2.38
2023-05-09T09:18:39.620Z,2.65
2023-05-09T09:21:45.496Z,2.63
2023-05-09T09:24:48.679Z,2.83
2023-05-09T09:27:51.680Z,2.97
2023-05-09T09:30:54.901Z,2.63
2023-05-09T09:34:03.141Z,3.03
2023-05-09T09:37:07.692Z,3.58
2023-05-09T09:40:13.091Z,3.55
2023-05-09T09:43:16.204Z,4.07
2023-05-09T09:46:19.964Z,4.40
2023-05-09T09:49:26.404Z,3.85
2023-05-09T09:52:53.333Z,4.18
2023-05-09T09:55:56.755Z,4.78
2023-05-09T09:59:10.389Z,4.50
2023-05-09T10:02:13.467Z,4.30
2023-05-09T10:05:21.050Z,4.07
2023-05-09T10:08:26.415Z,4.55
2023-05-09T10:11:30.099Z,4.90
2023-05-09T10:14:35.520Z,4.57
2023-05-09T10:17:39.447Z,4.10
2023-05-09T10:20:44.886Z,4.32
2023-05-09T10:23:52.226Z,4.43
2023-05-09T10:27:00.608Z,4.72
2023-05-09T10:30:33.967Z,4.07
2023-05-09T10:33:44.484Z,4.95
2023-05-09T10:36:48.211Z,4.18
2023-05-09T10:39:53.411Z,4.07
2023-05-09T10:42:56.837Z,4.90
2023-05-09T10:46:02.676Z,4.43
2023-05-09T10:49:06.338Z,4.20
2023-05-09T10:52:09.454Z,3.72
2023-05-09T10:55:12.906Z,4.03
2023-05-09T10:58:24.526Z,4.25
2023-05-09T11:01:35.203Z,4.32
2023-05-09T11:04:40.589Z,4.50
2023-05-09T11:07:44.208Z,4.40
2023-05-09T11:10:48.044Z,4.93
2023-05-09T11:13:51.302Z,4.93
2023-05-09T11:17:04.147Z,4.32
2023-05-09T11:20:08.546Z,4.55
2023-05-09T11:23:12.057Z,5.60
2023-05-09T11:26:16.128Z,5.00
2023-05-09T11:29:19.201Z,4.13
2023-05-09T11:32:28.990Z,4.93
2023-05-09T11:35:33.388Z,4.25
2023-05-09T11:38:43.396Z,4.20
2023-05-09T11:42:08.060Z,4.40
2023-05-09T11:45:12.261Z,3.63
2023-05-09T11:51:19.494Z,3.47
2023-05-09T11:54:25.173Z,3.88
2023-05-09T11:57:29.953Z,3.65
2023-05-09T12:00:33.155Z,3.15
2023-05-09T12:03:36.280Z,2.90
2023-05-09T12:06:39.579Z,3.40
2023-05-09T12:09:43.665Z,3.30
2023-05-09T12:12:49.472Z,3.38
2023-05-09T12:15:52.930Z,3.47
2023-05-09T12:18:57.157Z,3.05
2023-05-09T12:22:01.562Z,3.33
2023-05-09T12:25:08.197Z,2.92
2023-05-09T12:28:13.025Z,2.90
2023-05-09T12:31:17.407Z,2.65
2023-05-09T12:34:21.027Z,3.75
2023-05-09T12:37:24.054Z,3.30
2023-05-09T12:40:28.933Z,3.05
2023-05-09T12:43:34.708Z,3.33
2023-05-09T12:46:38.195Z,2.60
2023-05-09T12:49:41.567Z,3.22
2023-05-09T12:52:54.677Z,2.83
2023-05-09T12:56:12.321Z,2.50
2023-05-09T12:59:21.892Z,3.20
2023-05-09T13:02:26.944Z,2.58
2023-05-09T13:05:30.049Z,3.47
2023-05-09T13:08:33.315Z,2.47
2023-05-09T13:11:37.696Z,2.70
2023-05-09T13:14:42.442Z,2.55
2023-05-09T13:17:45.992Z,2.53
2023-05-09T13:20:50.375Z,3.03
2023-05-09T13:23:53.567Z,2.45
2023-05-09T13:26:56.653Z,3.00
2023-05-09T13:30:01.530Z,2.55
2023-05-09T13:33:16.554Z,2.92
2023-05-09T13:36:27.350Z,3.38
2023-05-09T13:39:30.812Z,3.35
2023-05-09T13:42:35.596Z,2.60
2023-05-09T13:45:40.166Z,2.65
2023-05-09T13:48:44.560Z,2.97
2023-05-09T13:51:47.807Z,2.13
2023-05-09T13:54:51.122Z,2.65
2023-05-09T13:57:54.686Z,2.63
2023-05-09T14:00:59.431Z,2.60
2023-05-09T14:04:03.454Z,3.03
2023-05-09T14:07:06.659Z,2.78
2023-05-09T14:10:12.291Z,2.63
2023-05-09T14:13:16.403Z,2.25
2023-05-09T14:16:20.951Z,2.55
2023-05-09T14:19:24.059Z,2.85
2023-05-09T14:22:27.122Z,2.92
2023-05-09T14:25:30.173Z,2.90
2023-05-09T14:28:33.540Z,2.50
2023-05-09T14:31:38.352Z,2.40
2023-05-09T14:34:41.719Z,2.47
2023-05-09T14:37:44.688Z,2.50
2023-05-09T14:40:48.854Z,2.47
2023-05-09T14:46:56.951Z,2.05
2023-05-09T14:50:00.173Z,2.28
2023-05-09T14:53:03.710Z,2.53
2023-05-09T14:56:07.886Z,1.83
2023-05-09T14:59:12.143Z,2.70
2023-05-09T15:02:16.711Z,2.85
2023-05-09T15:05:20.195Z,3.05
2023-05-09T15:08:23.421Z,2.40
2023-05-09T15:11:28.785Z,2.35
2023-05-09T15:14:33.901Z,2.00
2023-05-09T15:17:38.344Z,2.55
2023-05-09T15:20:41.345Z,2.13
2023-05-09T15:23:45.555Z,2.40
2023-05-09T15:29:51.426Z,2.60
2023-05-09T15:32:55.969Z,2.05
2023-05-09T15:36:00.811Z,2.60
2023-05-09T15:39:05.095Z,2.33
2023-05-09T15:42:08.820Z,2.88
2023-05-09T15:45:12.311Z,2.80
2023-05-09T15:48:17.183Z,2.60
2023-05-09T15:51:20.440Z,3.10
2023-05-09T15:54:25.579Z,2.42
2023-05-09T15:57:28.903Z,2.30
2023-05-09T16:00:32.138Z,2.28
2023-05-09T16:03:36.766Z,2.13
2023-05-09T16:06:40.443Z,2.58
2023-05-09T16:10:08.088Z,2.35
2023-05-09T16:13:11.204Z,2.20
2023-05-09T16:16:14.248Z,2.53
2023-05-09T16:19:17.289Z,1.90
2023-05-09T16:22:20.342Z,2.47
2023-05-09T16:25:24.648Z,2.50
2023-05-09T16:28:29.395Z,2.60
2023-05-09T16:31:35.510Z,2.20
2023-05-09T16:34:39.140Z,2.80
2023-05-09T16:37:42.906Z,2.40
2023-05-09T16:40:47.934Z,2.38
2023-05-09T16:43:51.704Z,2.10
2023-05-09T16:46:54.814Z,2.22
2023-05-09T16:49:57.990Z,2.90
2023-05-09T16:53:02.038Z,2.00
2023-05-09T16:56:08.105Z,2.13
2023-05-09T16:59:11.163Z,2.25
2023-05-09T17:02:14.563Z,2.30
2023-05-09T17:05:17.480Z,2.67
2023-05-09T17:08:20.633Z,2.53
2023-05-09T17:11:25.173Z,2.47
2023-05-09T17:14:28.235Z,2.35
2023-05-09T17:17:31.359Z,2.63
2023-05-09T17:20:34.343Z,2.47
2023-05-09T17:23:37.356Z,2.85
2023-05-09T17:26:42.030Z,2.08
2023-05-09T17:29:45.459Z,2.47
2023-05-09T17:32:48.682Z,1.87
2023-05-09T17:35:52.358Z,2.70
2023-05-09T17:38:55.364Z,2.35
2023-05-09T17:42:00.087Z,2.07
2023-05-09T17:45:03.291Z,2.60
2023-05-09T17:48:06.419Z,2.55
2023-05-09T17:51:09.564Z,2.60
2023-05-09T17:54:12.834Z,3.00
2023-05-09T17:57:17.394Z,3.00
2023-05-09T18:00:21.129Z,3.83
2023-05-09T18:03:24.301Z,4.55
2023-05-09T18:06:27.524Z,2.38
2023-05-09T18:09:30.869Z,2.67
2023-05-09T18:12:37.366Z,2.00
2023-05-09T18:15:41.194Z,2.65
2023-05-09T18:18:44.828Z,2.05
2023-05-09T18:21:47.837Z,2.10
2023-05-09T18:24:50.923Z,2.28
2023-05-09T18:30:38.957Z,2.00
2023-05-09T18:33:42.145Z,2.00
2023-05-09T18:36:45.203Z,2.88
2023-05-09T18:39:48.749Z,2.00
2023-05-09T18:42:51.810Z,2.33
2023-05-09T18:45:56.428Z,2.85
2023-05-09T18:48:59.836Z,2.15
2023-05-09T18:52:03.423Z,2.50
2023-05-09T18:55:07.832Z,2.00
2023-05-09T18:58:10.930Z,2.47
2023-05-09T19:01:15.958Z,2.50
2023-05-09T19:04:19.753Z,2.33
2023-05-09T19:07:23.488Z,2.50
2023-05-09T19:10:26.675Z,2.20
2023-05-09T19:13:30.040Z,2.30
2023-05-09T19:16:35.717Z,2.83
2023-05-09T19:19:39.131Z,2.25
2023-05-09T19:22:46.390Z,2.20
2023-05-09T19:25:50.538Z,2.63
2023-05-09T19:31:58.160Z,2.40
2023-05-09T19:35:03.932Z,2.13
2023-05-09T19:38:07.448Z,2.25
2023-05-09T19:41:11.166Z,2.67
2023-05-09T19:44:14.624Z,1.83
2023-05-09T19:47:19.047Z,2.10
2023-05-09T19:50:22.430Z,1.75
2023-05-09T19:53:25.728Z,3.10
2023-05-09T19:56:28.927Z,2.30
2023-05-09T19:59:32.277Z,2.58
2023-05-09T20:02:37.269Z,1.92
2023-05-09T20:05:40.361Z,2.80
2023-05-09T20:08:44.626Z,2.33
2023-05-09T20:14:51.150Z,2.42
2023-05-09T20:17:55.660Z,2.30
2023-05-09T20:20:58.690Z,2.30
2023-05-09T20:24:02.292Z,2.30
2023-05-09T20:27:05.282Z,2.35
2023-05-09T20:30:09.278Z,2.40
2023-05-09T20:33:13.927Z,1.92
2023-05-09T20:36:17.287Z,2.72
2023-05-09T20:39:21.306Z,2.03
2023-05-09T20:42:24.495Z,2.17
2023-05-09T20:45:28.764Z,1.98
2023-05-09T20:48:33.367Z,2.67
2023-05-09T20:51:36.531Z,2.50
2023-05-09T20:54:39.900Z,2.63
2023-05-09T20:57:42.986Z,2.77
2023-05-09T21:00:47.024Z,4.95
2023-05-09T21:03:51.653Z,3.67
2023-05-09T21:06:54.708Z,2.60
2023-05-09T21:09:57.844Z,2.35
2023-05-09T21:13:01.209Z,2.60
2023-05-09T21:16:04.700Z,2.53
2023-05-09T21:19:09.685Z,2.70
2023-05-09T21:22:13.224Z,2.67
2023-05-09T21:25:17.412Z,2.60
2023-05-09T21:28:20.721Z,3.00
2023-05-09T21:31:23.893Z,2.13
2023-05-09T21:34:28.364Z,2.35
2023-05-09T21:37:31.498Z,2.45
2023-05-09T21:40:34.912Z,2.30
2023-05-09T21:43:38.628Z,2.83
2023-05-09T21:46:45.986Z,2.83
2023-05-09T21:49:51.146Z,2.80
2023-05-09T21:52:56.184Z,2.90
2023-05-09T21:55:59.174Z,2.67
2023-05-09T21:59:02.420Z,2.70
2023-05-09T22:05:11.191Z,2.75
2023-05-09T22:08:14.158Z,2.58
2023-05-09T22:11:18.100Z,2.95
2023-05-09T22:14:21.407Z,2.95
2023-05-09T22:17:25.117Z,2.80
2023-05-09T22:20:30.055Z,3.92
2023-05-09T22:23:33.138Z,2.92
2023-05-09T22:26:36.150Z,2.53
2023-05-09T22:29:39.316Z,3.22
2023-05-09T22:32:42.429Z,2.28
2023-05-09T22:35:46.945Z,3.13
2023-05-09T22:38:50.070Z,3.40
2023-05-09T22:41:53.161Z,2.80
2023-05-09T22:44:56.276Z,2.30
2023-05-09T22:47:59.606Z,2.60
2023-05-09T22:51:04.436Z,3.67
2023-05-09T22:54:07.454Z,4.53
2023-05-09T22:57:13.042Z,3.78
2023-05-09T23:00:17.362Z,2.45
2023-05-09T23:03:21.295Z,2.80
2023-05-09T23:06:25.942Z,2.38
2023-05-09T23:09:29.347Z,3.15
2023-05-09T23:12:32.921Z,2.80
2023-05-09T23:15:36.399Z,3.10
2023-05-09T23:18:39.429Z,2.80
2023-05-09T23:21:43.679Z,2.72
2023-05-09T23:27:49.667Z,2.20
2023-05-09T23:30:52.692Z,2.97
2023-05-09T23:33:55.934Z,2.55
2023-05-09T23:37:00.316Z,2.45
2023-05-09T23:40:04.065Z,2.40
2023-05-09T23:43:07.130Z,2.50
2023-05-09T23:46:10.383Z,2.45
2023-05-09T23:49:14.663Z,2.45
2023-05-09T23:55:22.066Z,2.17
2023-05-09T23:58:25.195Z,2.65
